Time;durP1;ratioP1;P1;durP2;ratioP2;P2;SDS_P1;SDS_P2;PMS_P1;PMS_P2;Temp;Humidity;BMP_temperature;BMP_pressure;BME280_temperature;BME280_humidity;BME280_pressure;Samples;Min_cycle;Max_cycle;Signal;HPM_P1;HPM_P2
2022/12/02 00:00:19;;;;;;;;;;;2.50;99.90;;;;;;5088110;28;20027;-79
2022/12/02 00:02:45;;;;;;;;;;;2.50;99.90;;;;;;5071928;28;19920;-78
2022/12/02 00:05:14;;;;;;;;;;;2.50;99.90;;;;;;5072404;28;19977;-79
2022/12/02 00:07:39;;;;;;;;;;;2.40;99.90;;;;;;5055908;28;20362;-79
2022/12/02 00:10:21;;;;;;;;;;;2.50;99.90;;;;;;5072160;28;20050;-79
2022/12/02 00:12:46;;;;;;;;;;;2.40;99.90;;;;;;5071454;28;20285;-79
2022/12/02 00:15:30;;;;;;;;;;;2.50;99.90;;;;;;5072228;28;20015;-78
2022/12/02 00:17:56;;;;;;;;;;;2.80;99.90;;;;;;5056017;28;19920;-78
2022/12/02 00:20:21;;;;;;;;;;;2.40;99.90;;;;;;5071697;28;20018;-79
2022/12/02 00:22:47;;;;;;;;;;;2.40;99.90;;;;;;5071155;28;20263;-79
2022/12/02 00:25:12;;;;;;;;;;;2.40;99.90;;;;;;5072275;28;19920;-78
2022/12/02 00:27:38;;;;;;;;;;;2.40;99.90;;;;;;5055877;28;20232;-78
2022/12/02 00:30:03;;;;;;;;;;;2.40;99.90;;;;;;5071962;28;20045;-79
2022/12/02 00:32:29;;;;;;;;;;;2.40;99.90;;;;;;5069613;28;19921;-79
2022/12/02 00:34:54;;;;;;;;;;;2.50;99.90;;;;;;5072023;28;20011;-80
2022/12/02 00:37:20;;;;;;;;;;;2.40;99.90;;;;;;5056143;28;20025;-78
2022/12/02 00:39:46;;;;;;;;;;;2.50;99.90;;;;;;5072054;28;19920;-79
2022/12/02 00:42:11;;;;;;;;;;;2.40;99.90;;;;;;5070638;28;19927;-79
2022/12/02 00:47:21;;;;;;;;;;;2.40;99.90;;;;;;5055619;28;19974;-79
2022/12/02 00:49:46;;;;;;;;;;;2.40;99.90;;;;;;5087119;28;19963;-79
2022/12/02 00:52:12;;;;;;;;;;;2.60;99.90;;;;;;5070842;28;19920;-79
2022/12/02 00:54:37;;;;;;;;;;;2.50;99.90;;;;;;5071590;28;19924;-78
2022/12/02 00:57:03;;;;;;;;;;;2.60;99.90;;;;;;5054993;28;20017;-79
2022/12/02 00:59:28;;;;;;;;;;;2.50;99.90;;;;;;5070410;28;19944;-79
2022/12/02 01:01:54;;;;;;;;;;;2.50;99.90;;;;;;5071526;28;19928;-79
2022/12/02 01:04:19;;;;;;;;;;;2.80;99.90;;;;;;5070558;28;19921;-79
2022/12/02 01:06:45;;;;;;;;;;;2.50;99.90;;;;;;5056065;28;19920;-79
2022/12/02 01:09:11;;;;;;;;;;;2.70;99.90;;;;;;5069540;28;19924;-81
2022/12/02 01:11:36;;;;;;;;;;;2.50;99.90;;;;;;5071525;28;19928;-79
2022/12/02 01:14:02;;;;;;;;;;;2.80;99.90;;;;;;5069794;28;19927;-79
2022/12/02 01:16:27;;;;;;;;;;;2.50;99.90;;;;;;5041224;28;20443;-79
2022/12/02 01:18:53;;;;;;;;;;;2.40;99.90;;;;;;5066951;28;19925;-79
2022/12/02 01:21:20;;;;;;;;;;;2.40;99.90;;;;;;5070542;28;19924;-79
2022/12/02 01:23:46;;;;;;;;;;;2.40;99.90;;;;;;5069616;28;19921;-79
2022/12/02 01:26:11;;;;;;;;;;;2.70;99.90;;;;;;5062323;28;19974;-78
2022/12/02 01:28:37;;;;;;;;;;;2.50;99.90;;;;;;5062621;28;19921;-78
2022/12/02 01:31:02;;;;;;;;;;;2.40;99.90;;;;;;5071200;28;19920;-78
2022/12/02 01:33:28;;;;;;;;;;;2.40;99.90;;;;;;5069487;28;19921;-78
2022/12/02 01:35:53;;;;;;;;;;;2.60;99.90;;;;;;5069005;28;19927;-78
2022/12/02 01:38:19;;;;;;;;;;;2.30;99.90;;;;;;5055399;28;19954;-80
2022/12/02 01:40:45;;;;;;;;;;;2.40;99.90;;;;;;5070726;28;19920;-79
2022/12/02 01:43:11;;;;;;;;;;;2.30;99.90;;;;;;5069532;28;19924;-79
2022/12/02 01:45:37;;;;;;;;;;;2.30;99.90;;;;;;5070340;28;19924;-79
2022/12/02 01:48:03;;;;;;;;;;;2.30;99.90;;;;;;5050089;28;19920;-79
2022/12/02 01:50:29;;;;;;;;;;;2.20;99.90;;;;;;5069479;28;19932;-79
2022/12/02 01:52:55;;;;;;;;;;;2.30;99.90;;;;;;5069666;28;19920;-79
2022/12/02 01:55:22;;;;;;;;;;;2.20;99.90;;;;;;5070607;28;20280;-79
2022/12/02 01:57:48;;;;;;;;;;;2.30;99.90;;;;;;5054253;28;19927;-79
2022/12/02 02:00:14;;;;;;;;;;;2.50;99.90;;;;;;5070658;28;19920;-79
2022/12/02 02:02:40;;;;;;;;;;;2.20;99.90;;;;;;5102231;28;20374;-79
2022/12/02 02:05:07;;;;;;;;;;;2.20;99.90;;;;;;5070624;28;19920;-78
2022/12/02 02:07:33;;;;;;;;;;;2.20;99.90;;;;;;5053895;28;19920;-79
2022/12/02 02:09:58;;;;;;;;;;;2.20;99.90;;;;;;5070443;28;19972;-79
2022/12/02 02:12:24;;;;;;;;;;;2.20;99.90;;;;;;5069384;28;19971;-80
2022/12/02 02:14:50;;;;;;;;;;;2.20;99.90;;;;;;5069918;28;19926;-79
2022/12/02 02:17:15;;;;;;;;;;;2.30;99.90;;;;;;5053064;28;20365;-78
2022/12/02 02:19:43;;;;;;;;;;;2.20;99.90;;;;;;5070096;28;20003;-79
2022/12/02 02:22:14;;;;;;;;;;;2.20;99.90;;;;;;5069714;28;19928;-78
2022/12/02 02:24:40;;;;;;;;;;;2.20;99.90;;;;;;5070109;28;19930;-80
2022/12/02 02:27:05;;;;;;;;;;;2.30;99.90;;;;;;5053700;28;20010;-79
2022/12/02 02:29:31;;;;;;;;;;;2.30;99.90;;;;;;5066826;28;20007;-78
2022/12/02 02:31:57;;;;;;;;;;;2.30;99.90;;;;;;5102486;28;20369;-79
2022/12/02 02:34:23;;;;;;;;;;;2.30;99.90;;;;;;5068988;28;19967;-79
2022/12/02 02:36:48;;;;;;;;;;;2.20;99.90;;;;;;5054588;28;20247;-79
2022/12/02 02:39:14;;;;;;;;;;;2.50;99.90;;;;;;5069502;28;19925;-79
2022/12/02 02:41:39;;;;;;;;;;;2.20;99.90;;;;;;5069927;28;20358;-79
2022/12/02 02:44:05;;;;;;;;;;;2.30;99.90;;;;;;5069096;28;19932;-79
2022/12/02 02:46:31;;;;;;;;;;;2.20;99.90;;;;;;5056715;28;19921;-79
2022/12/02 02:48:56;;;;;;;;;;;2.20;99.90;;;;;;5067037;28;19920;-79
2022/12/02 02:51:22;;;;;;;;;;;2.20;99.90;;;;;;5070379;28;19921;-79
2022/12/02 02:53:48;;;;;;;;;;;2.20;99.90;;;;;;5068579;28;19920;-79
2022/12/02 02:56:13;;;;;;;;;;;2.20;99.90;;;;;;5063384;28;19928;-79
2022/12/02 02:58:39;;;;;;;;;;;2.20;99.90;;;;;;5066371;28;19921;-78
2022/12/02 03:01:07;;;;;;;;;;;2.30;99.90;;;;;;5074032;28;19994;-79
2022/12/02 03:03:34;;;;;;;;;;;2.20;99.90;;;;;;5072924;28;19920;-79
2022/12/02 03:06:01;;;;;;;;;;;2.30;99.90;;;;;;5073077;28;19944;-79
2022/12/02 03:08:28;;;;;;;;;;;2.50;99.90;;;;;;5057285;28;19920;-79
2022/12/02 03:10:54;;;;;;;;;;;2.20;99.90;;;;;;5073609;28;19920;-77
2022/12/02 03:13:20;;;;;;;;;;;2.50;99.90;;;;;;5072392;28;19925;-79
2022/12/02 03:15:46;;;;;;;;;;;2.20;99.90;;;;;;5073588;28;19924;-79
2022/12/02 03:18:12;;;;;;;;;;;2.50;99.90;;;;;;5056671;28;19931;-79
2022/12/02 03:20:38;;;;;;;;;;;2.20;99.90;;;;;;5073428;28;19926;-79
2022/12/02 03:23:04;;;;;;;;;;;2.20;99.90;;;;;;5072277;28;20015;-78
2022/12/02 03:25:30;;;;;;;;;;;2.20;99.90;;;;;;5071883;28;19928;-79
2022/12/02 03:27:55;;;;;;;;;;;2.20;99.90;;;;;;5056480;28;20366;-80
2022/12/02 03:30:21;;;;;;;;;;;2.20;99.90;;;;;;5073231;28;19932;-79
2022/12/02 03:32:47;;;;;;;;;;;2.50;99.90;;;;;;5071482;28;19987;-79
2022/12/02 03:35:12;;;;;;;;;;;2.10;99.90;;;;;;5072734;28;19920;-80
2022/12/02 03:37:38;;;;;;;;;;;2.30;99.90;;;;;;5057535;28;19931;-79
2022/12/02 03:40:04;;;;;;;;;;;2.50;99.90;;;;;;5072285;28;19968;-78
2022/12/02 03:42:29;;;;;;;;;;;2.10;99.90;;;;;;5071913;28;19927;-78
2022/12/02 03:44:55;;;;;;;;;;;2.10;99.90;;;;;;5071100;28;19920;-78
2022/12/02 03:47:21;;;;;;;;;;;2.00;99.90;;;;;;5055220;28;19933;-78
2022/12/02 03:49:47;;;;;;;;;;;2.10;99.90;;;;;;5072893;28;20432;-78
2022/12/02 03:52:12;;;;;;;;;;;2.20;99.90;;;;;;5071432;28;19920;-79
2022/12/02 03:54:38;;;;;;;;;;;2.00;99.90;;;;;;5072750;28;19967;-79
2022/12/02 03:57:04;;;;;;;;;;;1.90;99.90;;;;;;5056459;28;19924;-80
2022/12/02 03:59:30;;;;;;;;;;;2.00;99.90;;;;;;5071761;28;20326;-79
2022/12/02 04:01:55;;;;;;;;;;;1.90;99.90;;;;;;5072556;28;19920;-78
2022/12/02 04:04:21;;;;;;;;;;;1.90;99.90;;;;;;5070258;28;20027;-78
2022/12/02 04:06:47;;;;;;;;;;;2.10;99.90;;;;;;5057067;28;19975;-78
2022/12/02 04:09:12;;;;;;;;;;;2.00;99.90;;;;;;5071359;28;19921;-78
2022/12/02 04:11:38;;;;;;;;;;;1.90;99.90;;;;;;5072155;28;19974;-78
2022/12/02 04:14:03;;;;;;;;;;;1.90;99.90;;;;;;5070977;28;19921;-79
2022/12/02 04:16:29;;;;;;;;;;;2.00;99.90;;;;;;5060284;28;19935;-79
2022/12/02 04:18:54;;;;;;;;;;;1.90;99.90;;;;;;5068285;28;19931;-79
2022/12/02 04:21:20;;;;;;;;;;;1.90;99.90;;;;;;5072128;28;19920;-79
2022/12/02 04:23:49;;;;;;;;;;;2.00;99.90;;;;;;5070750;28;19968;-79
2022/12/02 04:26:15;;;;;;;;;;;1.90;99.90;;;;;;5072243;28;19928;-78
2022/12/02 04:28:40;;;;;;;;;;;2.00;99.90;;;;;;5055960;28;19978;-78
2022/12/02 04:31:06;;;;;;;;;;;2.00;99.90;;;;;;5071945;28;19968;-79
2022/12/02 04:33:31;;;;;;;;;;;2.10;99.90;;;;;;5071187;28;19920;-79
2022/12/02 04:35:57;;;;;;;;;;;2.00;99.90;;;;;;5071336;28;19924;-79
2022/12/02 04:38:23;;;;;;;;;;;2.00;99.90;;;;;;5055997;28;19924;-79
2022/12/02 04:40:48;;;;;;;;;;;2.00;99.90;;;;;;5071853;28;19927;-79
2022/12/02 04:43:14;;;;;;;;;;;2.00;99.90;;;;;;5070831;28;19930;-79
2022/12/02 04:45:40;;;;;;;;;;;2.10;99.90;;;;;;5071726;28;19983;-80
2022/12/02 04:48:05;;;;;;;;;;;2.00;99.90;;;;;;5055088;28;20035;-79
2022/12/02 04:50:31;;;;;;;;;;;2.00;99.90;;;;;;5070924;28;19924;-79
2022/12/02 04:52:56;;;;;;;;;;;2.10;99.90;;;;;;5070694;28;19924;-79
2022/12/02 04:55:22;;;;;;;;;;;2.10;99.90;;;;;;5072048;28;20369;-79
2022/12/02 04:57:48;;;;;;;;;;;2.10;99.90;;;;;;5050294;28;19956;-79
2022/12/02 05:00:13;;;;;;;;;;;2.10;99.90;;;;;;5069637;28;19921;-78
2022/12/02 05:02:39;;;;;;;;;;;2.10;99.90;;;;;;5069770;28;19947;-79
2022/12/02 05:05:05;;;;;;;;;;;2.10;99.90;;;;;;5084905;28;19925;-78
2022/12/02 05:07:30;;;;;;;;;;;2.10;99.90;;;;;;5054767;28;20394;-78
2022/12/02 05:09:56;;;;;;;;;;;2.10;99.90;;;;;;5070784;28;19959;-78
2022/12/02 05:12:23;;;;;;;;;;;2.20;99.90;;;;;;5070700;28;19920;-78
2022/12/02 05:14:49;;;;;;;;;;;2.10;99.90;;;;;;5070937;28;19920;-78
2022/12/02 05:17:14;;;;;;;;;;;2.00;99.90;;;;;;5054096;28;20390;-78
2022/12/02 05:19:40;;;;;;;;;;;2.10;99.90;;;;;;5070750;28;19999;-78
2022/12/02 05:22:05;;;;;;;;;;;2.30;99.90;;;;;;5070331;28;19928;-78
2022/12/02 05:24:31;;;;;;;;;;;2.00;99.90;;;;;;5070911;28;19931;-78
2022/12/02 05:26:56;;;;;;;;;;;2.00;99.90;;;;;;5054322;28;20390;-79
2022/12/02 05:29:22;;;;;;;;;;;2.00;99.90;;;;;;5068289;28;20309;-79
2022/12/02 05:31:48;;;;;;;;;;;2.00;99.90;;;;;;5070381;28;19921;-79
2022/12/02 05:34:13;;;;;;;;;;;2.00;99.90;;;;;;5069642;28;19921;-79
2022/12/02 05:36:39;;;;;;;;;;;2.00;99.90;;;;;;5056663;28;20015;-78
2022/12/02 05:39:04;;;;;;;;;;;1.90;99.90;;;;;;5067953;28;19925;-78
2022/12/02 05:41:30;;;;;;;;;;;1.90;99.90;;;;;;5070654;28;19925;-79
2022/12/02 05:43:56;;;;;;;;;;;1.90;99.90;;;;;;5065145;28;19921;-78
2022/12/02 05:46:22;;;;;;;;;;;1.90;99.90;;;;;;5044327;28;19925;-80
2022/12/02 05:48:48;;;;;;;;;;;1.90;99.90;;;;;;5046692;28;19921;-79
2022/12/02 05:51:15;;;;;;;;;;;1.90;99.90;;;;;;5069932;28;19968;-78
2022/12/02 05:53:42;;;;;;;;;;;1.90;99.90;;;;;;5069943;28;19971;-78
2022/12/02 05:56:12;;;;;;;;;;;1.90;99.90;;;;;;5065505;28;19920;-80
2022/12/02 05:58:38;;;;;;;;;;;1.90;99.90;;;;;;5062832;28;19925;-79
2022/12/02 06:01:12;;;;;;;;;;;1.90;99.90;;;;;;5070392;28;19927;-79
2022/12/02 06:03:38;;;;;;;;;;;1.90;99.90;;;;;;5070140;28;20434;-78
2022/12/02 06:06:07;;;;;;;;;;;1.90;99.90;;;;;;5070362;28;20015;-78
2022/12/02 06:08:33;;;;;;;;;;;1.90;99.90;;;;;;5059416;28;20015;-79
2022/12/02 06:11:01;;;;;;;;;;;1.90;99.90;;;;;;5069880;28;20023;-78
2022/12/02 06:13:27;;;;;;;;;;;1.90;99.90;;;;;;5069833;28;19947;-79
2022/12/02 06:15:53;;;;;;;;;;;1.90;99.90;;;;;;5070273;28;19921;-78
2022/12/02 06:18:20;;;;;;;;;;;2.10;99.90;;;;;;5053876;28;20008;-78
2022/12/02 06:20:46;;;;;;;;;;;2.50;99.90;;;;;;5069676;28;19966;-78
2022/12/02 06:23:17;;;;;;;;;;;1.90;99.90;;;;;;5069610;28;19928;-79
2022/12/02 06:25:43;;;;;;;;;;;1.90;99.90;;;;;;5070024;28;19920;-78
2022/12/02 06:28:21;;;;;;;;;;;2.10;99.90;;;;;;5054488;28;20310;-79
2022/12/02 06:30:47;;;;;;;;;;;1.90;99.90;;;;;;5072706;28;19921;-78
2022/12/02 06:33:39;;;;;;;;;;;1.90;99.90;;;;;;5073235;28;20362;-78
2022/12/02 06:36:20;;;;;;;;;;;1.90;99.90;;;;;;5072025;28;19921;-78
2022/12/02 06:38:59;;;;;;;;;;;1.90;99.90;;;;;;5069493;28;20240;-79
2022/12/02 06:41:27;;;;;;;;;;;1.90;99.90;;;;;;5073924;28;20354;-78
2022/12/02 06:46:44;;;;;;;;;;;1.90;99.90;;;;;;5058425;28;20598;-79
2022/12/02 06:49:15;;;;;;;;;;;1.90;99.90;;;;;;5072808;28;19952;-79
2022/12/02 06:51:41;;;;;;;;;;;1.90;99.90;;;;;;5073991;28;19939;-79
2022/12/02 06:54:14;;;;;;;;;;;1.90;99.90;;;;;;5073174;28;19924;-79
2022/12/02 06:56:39;;;;;;;;;;;1.90;99.90;;;;;;5055715;28;20416;-79
2022/12/02 06:59:05;;;;;;;;;;;1.90;99.90;;;;;;5066564;28;19929;-79
2022/12/02 07:01:33;;;;;;;;;;;1.90;99.90;;;;;;5064870;28;19929;-79
2022/12/02 07:04:04;;;;;;;;;;;1.90;99.90;;;;;;5051702;28;20282;-79
2022/12/02 07:06:30;;;;;;;;;;;1.90;99.90;;;;;;5048626;28;19979;-81
2022/12/02 07:09:00;;;;;;;;;;;2.00;99.90;;;;;;5048081;28;19925;-79
2022/12/02 07:14:33;;;;;;;;;;;2.00;99.90;;;;;;5063952;28;19966;-79
2022/12/02 07:17:00;;;;;;;;;;;1.90;99.90;;;;;;5037124;28;20243;-78
2022/12/02 07:19:31;;;;;;;;;;;1.90;99.90;;;;;;5053651;28;19924;-78
2022/12/02 07:21:56;;;;;;;;;;;2.00;99.90;;;;;;5073115;28;20015;-79
2022/12/02 07:24:24;;;;;;;;;;;2.00;99.90;;;;;;5070541;28;20352;-79
2022/12/02 07:26:49;;;;;;;;;;;2.00;99.90;;;;;;5058162;28;19928;-79
2022/12/02 07:29:26;;;;;;;;;;;2.00;99.90;;;;;;5071792;28;19932;-80
2022/12/02 07:31:52;;;;;;;;;;;2.00;99.90;;;;;;5072193;28;19924;-78
2022/12/02 07:34:17;;;;;;;;;;;2.10;99.90;;;;;;5061500;28;19920;-80
2022/12/02 07:36:43;;;;;;;;;;;2.10;99.90;;;;;;5057771;28;19924;-79
2022/12/02 07:39:08;;;;;;;;;;;2.20;99.90;;;;;;5070850;28;19927;-80
2022/12/02 07:41:34;;;;;;;;;;;2.20;99.90;;;;;;5068695;28;19925;-79
2022/12/02 07:44:00;;;;;;;;;;;2.30;99.90;;;;;;5060079;28;19921;-79
2022/12/02 07:46:25;;;;;;;;;;;2.30;99.90;;;;;;5048981;28;20837;-80
2022/12/02 07:48:51;;;;;;;;;;;2.40;99.90;;;;;;5054313;28;20370;-79
2022/12/02 07:51:16;;;;;;;;;;;2.40;99.90;;;;;;5071433;28;20015;-80
2022/12/02 07:53:42;;;;;;;;;;;2.40;99.90;;;;;;5070484;28;19960;-79
2022/12/02 07:56:07;;;;;;;;;;;2.50;99.90;;;;;;5067767;28;19935;-81
2022/12/02 07:58:33;;;;;;;;;;;2.50;99.90;;;;;;5057143;28;19925;-79
2022/12/02 08:00:58;;;;;;;;;;;2.50;99.90;;;;;;5070764;28;20014;-80
2022/12/02 08:03:24;;;;;;;;;;;2.50;99.90;;;;;;5070255;28;20247;-78
2022/12/02 08:05:50;;;;;;;;;;;2.60;99.90;;;;;;5071105;28;19920;-78
2022/12/02 08:08:15;;;;;;;;;;;2.60;99.90;;;;;;5055272;28;20038;-79
2022/12/02 08:10:41;;;;;;;;;;;2.50;99.90;;;;;;5065589;28;19924;-79
2022/12/02 08:13:06;;;;;;;;;;;2.80;99.90;;;;;;5062766;28;19921;-78
2022/12/02 08:15:32;;;;;;;;;;;2.40;99.90;;;;;;5066672;28;19974;-78
2022/12/02 08:17:57;;;;;;;;;;;2.40;99.90;;;;;;5053176;28;19920;-78
2022/12/02 08:20:23;;;;;;;;;;;2.40;99.90;;;;;;5070825;28;19998;-78
2022/12/02 08:22:48;;;;;;;;;;;2.20;99.90;;;;;;5069649;28;20243;-78
2022/12/02 08:25:14;;;;;;;;;;;2.40;99.90;;;;;;5070571;28;19974;-78
2022/12/02 08:27:40;;;;;;;;;;;2.30;99.90;;;;;;5053937;28;19921;-79
2022/12/02 08:30:07;;;;;;;;;;;2.20;99.90;;;;;;5066056;28;19920;-79
2022/12/02 08:32:32;;;;;;;;;;;2.20;99.90;;;;;;5062008;28;19974;-78
2022/12/02 08:34:58;;;;;;;;;;;2.20;99.90;;;;;;5068207;28;20320;-78
2022/12/02 08:37:23;;;;;;;;;;;2.10;99.90;;;;;;5053040;28;19929;-79
2022/12/02 08:39:49;;;;;;;;;;;2.10;99.90;;;;;;5068274;28;20329;-79
2022/12/02 08:42:14;;;;;;;;;;;2.00;99.90;;;;;;5066850;28;19924;-78
2022/12/02 08:44:40;;;;;;;;;;;2.00;99.90;;;;;;5005704;28;1806873;-79
2022/12/02 08:47:06;;;;;;;;;;;2.00;99.90;;;;;;5053576;28;19920;-79
2022/12/02 08:49:31;;;;;;;;;;;2.00;99.90;;;;;;5069092;28;19934;-79
2022/12/02 08:51:57;;;;;;;;;;;2.10;99.90;;;;;;5067768;28;19920;-81
2022/12/02 08:54:22;;;;;;;;;;;2.00;99.90;;;;;;5068149;28;19974;-79
2022/12/02 08:56:48;;;;;;;;;;;1.90;99.90;;;;;;5054323;28;19924;-79
2022/12/02 08:59:14;;;;;;;;;;;2.50;99.90;;;;;;5068552;28;19921;-78
2022/12/02 09:01:39;;;;;;;;;;;1.90;99.90;;;;;;5047986;28;20390;-79
2022/12/02 09:04:05;;;;;;;;;;;1.90;99.90;;;;;;5048561;28;19999;-82
2022/12/02 09:06:30;;;;;;;;;;;1.90;99.90;;;;;;5037329;28;19932;-81
2022/12/02 09:08:56;;;;;;;;;;;2.00;99.90;;;;;;5045445;28;20900;-79
2022/12/02 09:11:22;;;;;;;;;;;1.90;99.90;;;;;;5049246;28;20453;-78
2022/12/02 09:13:47;;;;;;;;;;;1.90;99.90;;;;;;5048967;28;19925;-81
2022/12/02 09:16:13;;;;;;;;;;;2.20;99.90;;;;;;5040457;28;19968;-81
2022/12/02 09:18:38;;;;;;;;;;;2.00;99.90;;;;;;5043167;28;20003;-79
2022/12/02 09:21:04;;;;;;;;;;;1.80;99.90;;;;;;5047697;28;20461;-79
2022/12/02 09:23:30;;;;;;;;;;;1.90;99.90;;;;;;5048916;28;20275;-80
2022/12/02 09:25:55;;;;;;;;;;;1.90;99.90;;;;;;5049418;28;20294;-78
2022/12/02 09:28:22;;;;;;;;;;;1.90;99.90;;;;;;5033906;28;19933;-80
2022/12/02 09:30:48;;;;;;;;;;;1.90;99.90;;;;;;5050500;28;19979;-78
2022/12/02 09:33:14;;;;;;;;;;;1.70;99.90;;;;;;5048250;28;19957;-81
2022/12/02 09:35:45;;;;;;;;;;;1.70;99.90;;;;;;5049513;28;20537;-79
2022/12/02 09:38:10;;;;;;;;;;;1.60;99.90;;;;;;5035434;28;20026;-78
2022/12/02 09:40:36;;;;;;;;;;;1.60;99.90;;;;;;5049327;28;19950;-79
2022/12/02 09:43:03;;;;;;;;;;;1.80;99.90;;;;;;5045108;28;19950;-80
2022/12/02 09:45:29;;;;;;;;;;;1.60;99.90;;;;;;5049762;28;20342;-81
2022/12/02 09:47:54;;;;;;;;;;;2.10;99.90;;;;;;5033756;28;19924;-79
2022/12/02 09:50:21;;;;;;;;;;;1.60;99.90;;;;;;5049576;28;19990;-80
2022/12/02 09:52:47;;;;;;;;;;;1.60;99.90;;;;;;5047836;28;20001;-79
2022/12/02 09:55:15;;;;;;;;;;;1.60;99.90;;;;;;5048968;28;19930;-79
2022/12/02 09:57:40;;;;;;;;;;;1.60;99.90;;;;;;5033850;28;20744;-80
2022/12/02 10:00:07;;;;;;;;;;;1.60;99.90;;;;;;5048055;28;19931;-79
2022/12/02 10:02:38;;;;;;;;;;;1.70;99.90;;;;;;5047070;28;20445;-81
2022/12/02 10:05:10;;;;;;;;;;;1.70;99.90;;;;;;5048126;28;19979;-81
2022/12/02 10:07:36;;;;;;;;;;;1.70;99.90;;;;;;5030745;28;19933;-80
2022/12/02 10:10:01;;;;;;;;;;;1.80;99.90;;;;;;5048863;28;20404;-78
2022/12/02 10:12:27;;;;;;;;;;;1.80;99.90;;;;;;5048152;28;19964;-80
2022/12/02 10:14:52;;;;;;;;;;;1.80;99.90;;;;;;5049023;28;20260;-79
2022/12/02 10:17:19;;;;;;;;;;;1.80;99.90;;;;;;5029500;28;20085;-79
2022/12/02 10:19:45;;;;;;;;;;;2.10;99.90;;;;;;5046289;28;19979;-79
2022/12/02 10:22:13;;;;;;;;;;;2.90;99.90;;;;;;5041610;28;20469;-79
2022/12/02 10:24:39;;;;;;;;;;;2.60;99.90;;;;;;5046505;28;20734;-79
2022/12/02 10:27:04;;;;;;;;;;;2.40;99.90;;;;;;5033732;28;19920;-78
2022/12/02 10:29:30;;;;;;;;;;;2.40;99.90;;;;;;5048684;28;19956;-81
2022/12/02 10:31:57;;;;;;;;;;;2.30;99.90;;;;;;5049205;28;19940;-81
2022/12/02 10:34:23;;;;;;;;;;;2.20;99.90;;;;;;5049630;28;20023;-81
2022/12/02 10:36:49;;;;;;;;;;;2.20;99.90;;;;;;5033898;28;19924;-79
2022/12/02 10:39:32;;;;;;;;;;;2.00;99.90;;;;;;5047421;28;20247;-80
2022/12/02 10:42:03;;;;;;;;;;;1.90;99.90;;;;;;5048809;28;19920;-80
2022/12/02 10:44:30;;;;;;;;;;;1.90;99.90;;;;;;5048417;28;19924;-81
2022/12/02 10:47:08;;;;;;;;;;;1.90;99.90;;;;;;5029395;28;20488;-80
2022/12/02 10:49:34;;;;;;;;;;;1.90;99.90;;;;;;5045932;28;19940;-80
2022/12/02 10:52:03;;;;;;;;;;;1.90;99.90;;;;;;5047177;28;19920;-80
2022/12/02 10:54:31;;;;;;;;;;;1.80;99.90;;;;;;5047844;28;19940;-79
2022/12/02 10:56:58;;;;;;;;;;;1.90;99.90;;;;;;5032861;28;19932;-79
2022/12/02 10:59:24;;;;;;;;;;;1.90;99.90;;;;;;5047362;28;20390;-78
2022/12/02 11:01:49;;;;;;;;;;;2.00;99.90;;;;;;5047451;28;19970;-79
2022/12/02 11:04:15;;;;;;;;;;;2.10;99.90;;;;;;5047140;28;21304;-79
2022/12/02 11:06:42;;;;;;;;;;;2.20;99.90;;;;;;5034558;28;19970;-78
2022/12/02 11:09:13;;;;;;;;;;;2.30;99.90;;;;;;5044821;28;20660;-79
2022/12/02 11:11:39;;;;;;;;;;;2.30;99.90;;;;;;5046160;28;20005;-80
2022/12/02 11:14:08;;;;;;;;;;;2.80;99.90;;;;;;5045008;28;20286;-80
2022/12/02 11:16:34;;;;;;;;;;;2.50;99.90;;;;;;5035854;28;19939;-81
2022/12/02 11:19:21;;;;;;;;;;;2.50;99.90;;;;;;5047623;28;19932;-81
2022/12/02 11:21:47;;;;;;;;;;;2.40;99.90;;;;;;5049241;28;19924;-79
2022/12/02 11:24:22;;;;;;;;;;;2.50;99.90;;;;;;5047446;28;19939;-81
2022/12/02 11:27:00;;;;;;;;;;;2.40;99.90;;;;;;5035028;28;19936;-81
2022/12/02 11:29:26;;;;;;;;;;;2.40;99.90;;;;;;5049102;28;19932;-80
2022/12/02 11:32:10;;;;;;;;;;;2.30;99.90;;;;;;5049653;28;19924;-79
2022/12/02 11:34:40;;;;;;;;;;;2.50;99.90;;;;;;5049837;28;20019;-80
2022/12/02 11:37:25;;;;;;;;;;;2.60;99.90;;;;;;5034896;28;20313;-80
2022/12/02 11:39:53;;;;;;;;;;;2.60;99.90;;;;;;5049825;28;19932;-81
2022/12/02 11:42:19;;;;;;;;;;;2.50;99.90;;;;;;5049162;28;19940;-81
2022/12/02 11:44:44;;;;;;;;;;;2.60;99.90;;;;;;5049799;28;20401;-80
2022/12/02 11:47:30;;;;;;;;;;;2.40;99.90;;;;;;5037998;28;20519;-80
2022/12/02 11:50:13;;;;;;;;;;;2.30;99.90;;;;;;5050147;28;19934;-79
2022/12/02 11:53:00;;;;;;;;;;;2.40;99.90;;;;;;5049269;28;19936;-79
2022/12/02 11:55:33;;;;;;;;;;;2.30;99.90;;;;;;5049551;28;20368;-81
2022/12/02 11:57:59;;;;;;;;;;;2.30;99.90;;;;;;5064459;28;19928;-79
2022/12/02 12:00:27;;;;;;;;;;;2.30;99.90;;;;;;5048194;28;20500;-81
2022/12/02 12:03:11;;;;;;;;;;;2.40;99.90;;;;;;5048117;28;20476;-80
2022/12/02 12:05:38;;;;;;;;;;;2.40;99.90;;;;;;5046300;28;19941;-79
2022/12/02 12:08:04;;;;;;;;;;;2.40;99.90;;;;;;5032687;28;19937;-80
2022/12/02 12:10:29;;;;;;;;;;;2.40;99.90;;;;;;5046961;28;20263;-79
2022/12/02 12:13:11;;;;;;;;;;;2.80;99.90;;;;;;5046681;28;19938;-81
2022/12/02 12:15:46;;;;;;;;;;;2.30;99.90;;;;;;5063699;28;20412;-81
2022/12/02 12:18:31;;;;;;;;;;;2.30;99.90;;;;;;5029785;28;19924;-79
2022/12/02 12:20:57;;;;;;;;;;;2.30;99.90;;;;;;5048031;28;19982;-80
2022/12/02 12:23:30;;;;;;;;;;;2.30;99.90;;;;;;5048505;28;20027;-79
2022/12/02 12:25:56;;;;;;;;;;;2.30;99.90;;;;;;5049482;28;19932;-79
2022/12/02 12:28:22;;;;;;;;;;;2.30;99.90;;;;;;5030068;28;20279;-79
2022/12/02 12:30:48;;;;;;;;;;;2.40;99.90;;;;;;5048344;28;19932;-79
2022/12/02 12:33:14;;;;;;;;;;;2.40;99.90;;;;;;5049504;28;19948;-79
2022/12/02 12:35:39;;;;;;;;;;;2.30;99.90;;;;;;5049799;28;19920;-79
2022/12/02 12:38:05;;;;;;;;;;;2.30;99.90;;;;;;5033999;28;19934;-80
2022/12/02 12:40:30;;;;;;;;;;;2.30;99.90;;;;;;5049269;28;20325;-80
2022/12/02 12:42:56;;;;;;;;;;;2.30;99.90;;;;;;5048994;28;19943;-79
2022/12/02 12:45:21;;;;;;;;;;;2.20;99.90;;;;;;5051030;28;19951;-80
2022/12/02 12:47:47;;;;;;;;;;;2.20;99.90;;;;;;5032932;28;19932;-79
2022/12/02 12:50:12;;;;;;;;;;;2.30;99.90;;;;;;5048704;28;20410;-80
2022/12/02 12:52:38;;;;;;;;;;;2.20;99.90;;;;;;5048531;28;19927;-79
2022/12/02 12:55:03;;;;;;;;;;;2.10;99.90;;;;;;5049755;28;19938;-80
2022/12/02 12:57:29;;;;;;;;;;;2.20;99.90;;;;;;5033843;28;20016;-81
2022/12/02 12:59:55;;;;;;;;;;;2.20;99.90;;;;;;5048723;28;19987;-80
2022/12/02 13:02:20;;;;;;;;;;;2.20;99.90;;;;;;5046692;28;19921;-79
2022/12/02 13:04:46;;;;;;;;;;;2.60;99.90;;;;;;5048187;28;19978;-80
2022/12/02 13:07:11;;;;;;;;;;;2.20;99.90;;;;;;5032023;28;20451;-79
2022/12/02 13:09:37;;;;;;;;;;;2.60;99.90;;;;;;5047375;28;20364;-79
2022/12/02 13:12:02;;;;;;;;;;;2.20;99.90;;;;;;5047310;28;19947;-80
2022/12/02 13:14:28;;;;;;;;;;;2.20;99.90;;;;;;5047871;28;19985;-81
2022/12/02 13:16:53;;;;;;;;;;;2.20;99.90;;;;;;5033234;28;19939;-80
2022/12/02 13:19:19;;;;;;;;;;;2.20;99.90;;;;;;5046948;28;21012;-80
2022/12/02 13:21:45;;;;;;;;;;;2.20;99.90;;;;;;5047019;28;19928;-80
2022/12/02 13:24:12;;;;;;;;;;;2.20;99.90;;;;;;5048179;28;19940;-79
2022/12/02 13:26:38;;;;;;;;;;;2.20;99.90;;;;;;5033130;28;20086;-80
2022/12/02 13:29:03;;;;;;;;;;;2.10;99.90;;;;;;5045757;28;19933;-81
2022/12/02 13:31:29;;;;;;;;;;;2.20;99.90;;;;;;5063742;28;19948;-79
2022/12/02 13:33:55;;;;;;;;;;;2.10;99.90;;;;;;5046916;28;19933;-81
2022/12/02 13:36:20;;;;;;;;;;;2.10;99.90;;;;;;5034833;28;20729;-82
2022/12/02 13:38:46;;;;;;;;;;;2.20;99.90;;;;;;5040428;28;19933;-80
2022/12/02 13:41:11;;;;;;;;;;;2.10;99.90;;;;;;5046166;28;19925;-79
2022/12/02 13:43:37;;;;;;;;;;;2.00;99.90;;;;;;5042448;28;19932;-81
2022/12/02 13:46:03;;;;;;;;;;;2.00;99.90;;;;;;5044894;28;19933;-80
2022/12/02 13:48:28;;;;;;;;;;;2.00;99.90;;;;;;5028748;28;20287;-80
2022/12/02 13:50:54;;;;;;;;;;;2.00;99.90;;;;;;5044816;28;19991;-79
2022/12/02 13:53:19;;;;;;;;;;;1.90;99.90;;;;;;5077133;28;20431;-81
2022/12/02 13:55:45;;;;;;;;;;;2.30;99.90;;;;;;5044642;28;20051;-79
2022/12/02 13:58:11;;;;;;;;;;;1.80;99.90;;;;;;5030906;28;19933;-81
2022/12/02 14:00:36;;;;;;;;;;;1.90;99.90;;;;;;5046901;28;19933;-79
2022/12/02 14:03:02;;;;;;;;;;;1.80;99.90;;;;;;5047721;28;20282;-80
2022/12/02 14:05:27;;;;;;;;;;;1.70;99.90;;;;;;5047184;28;19933;-80
2022/12/02 14:07:53;;;;;;;;;;;1.80;99.90;;;;;;5030372;28;19936;-79
2022/12/02 14:10:18;;;;;;;;;;;1.80;99.90;;;;;;5045963;28;19920;-79
2022/12/02 14:12:44;;;;;;;;;;;1.80;99.90;;;;;;5047242;28;20371;-81
2022/12/02 14:15:10;;;;;;;;;;;1.80;99.90;;;;;;5047706;28;19936;-80
2022/12/02 14:17:35;;;;;;;;;;;1.70;99.90;;;;;;5031007;28;21182;-80
2022/12/02 14:20:01;;;;;;;;;;;1.80;99.90;;;;;;5046842;28;19928;-80
2022/12/02 14:22:26;;;;;;;;;;;1.80;99.90;;;;;;5046927;28;19932;-79
2022/12/02 14:24:52;;;;;;;;;;;1.70;99.90;;;;;;5047790;28;19932;-79
2022/12/02 14:27:17;;;;;;;;;;;1.70;99.90;;;;;;5029512;28;19974;-80
2022/12/02 14:29:43;;;;;;;;;;;1.80;99.90;;;;;;5046365;28;19933;-80
2022/12/02 14:32:08;;;;;;;;;;;1.70;99.90;;;;;;5044312;28;19933;-81
2022/12/02 14:34:34;;;;;;;;;;;1.70;99.90;;;;;;5047261;28;20013;-80
2022/12/02 14:36:59;;;;;;;;;;;1.70;99.90;;;;;;5031290;28;19987;-80